sensor_id;sensor_type;location;lat;lon;timestamp;P1;durP1;ratioP1;P2;durP2;ratioP2
22937;SDS011;11634;42.734;23.298;2022-08-21T00:00:09;27.95;;;21.00;;
22937;SDS011;11634;42.734;23.298;2022-08-21T00:02:44;27.00;;;20.30;;
22937;SDS011;11634;42.734;23.298;2022-08-21T00:05:13;29.92;;;22.38;;
22937;SDS011;11634;42.734;23.298;2022-08-21T00:07:38;26.63;;;21.02;;
22937;SDS011;11634;42.734;23.298;2022-08-21T00:10:04;26.02;;;20.83;;
22937;SDS011;11634;42.734;23.298;2022-08-21T00:12:30;21.25;;;17.65;;
22937;SDS011;11634;42.734;23.298;2022-08-21T00:14:56;22.70;;;17.75;;
22937;SDS011;11634;42.734;23.298;2022-08-21T00:17:22;24.27;;;18.77;;
22937;SDS011;11634;42.734;23.298;2022-08-21T00:19:48;24.13;;;17.25;;
22937;SDS011;11634;42.734;23.298;2022-08-21T00:22:13;21.55;;;18.65;;
22937;SDS011;11634;42.734;23.298;2022-08-21T00:24:39;26.05;;;20.50;;
22937;SDS011;11634;42.734;23.298;2022-08-21T00:27:08;25.40;;;19.80;;
22937;SDS011;11634;42.734;23.298;2022-08-21T00:29:33;27.38;;;19.60;;
22937;SDS011;11634;42.734;23.298;2022-08-21T00:31:59;23.70;;;18.52;;
22937;SDS011;11634;42.734;23.298;2022-08-21T00:34:25;24.80;;;19.42;;
22937;SDS011;11634;42.734;23.298;2022-08-21T00:36:51;27.98;;;20.55;;
22937;SDS011;11634;42.734;23.298;2022-08-21T00:39:16;27.85;;;21.63;;
22937;SDS011;11634;42.734;23.298;2022-08-21T00:41:42;27.80;;;21.08;;
22937;SDS011;11634;42.734;23.298;2022-08-21T00:44:09;23.73;;;19.10;;
22937;SDS011;11634;42.734;23.298;2022-08-21T00:46:40;29.90;;;22.38;;
22937;SDS011;11634;42.734;23.298;2022-08-21T00:49:07;30.42;;;23.45;;
22937;SDS011;11634;42.734;23.298;2022-08-21T00:54:12;31.48;;;22.95;;
22937;SDS011;11634;42.734;23.298;2022-08-21T00:56:38;27.33;;;21.88;;
22937;SDS011;11634;42.734;23.298;2022-08-21T00:59:05;28.38;;;19.63;;
22937;SDS011;11634;42.734;23.298;2022-08-21T01:01:31;28.75;;;19.63;;
22937;SDS011;11634;42.734;23.298;2022-08-21T01:03:58;22.17;;;17.63;;
22937;SDS011;11634;42.734;23.298;2022-08-21T01:06:24;19.75;;;15.43;;
22937;SDS011;11634;42.734;23.298;2022-08-21T01:08:52;17.90;;;14.50;;
22937;SDS011;11634;42.734;23.298;2022-08-21T01:11:18;22.08;;;15.23;;
22937;SDS011;11634;42.734;23.298;2022-08-21T01:13:45;24.55;;;16.75;;
22937;SDS011;11634;42.734;23.298;2022-08-21T01:16:13;28.10;;;20.15;;
22937;SDS011;11634;42.734;23.298;2022-08-21T01:18:44;29.40;;;20.50;;
22937;SDS011;11634;42.734;23.298;2022-08-21T01:21:12;27.55;;;19.55;;
22937;SDS011;11634;42.734;23.298;2022-08-21T01:23:41;27.63;;;19.98;;
22937;SDS011;11634;42.734;23.298;2022-08-21T01:26:09;18.33;;;13.13;;
22937;SDS011;11634;42.734;23.298;2022-08-21T01:28:38;20.63;;;15.63;;
22937;SDS011;11634;42.734;23.298;2022-08-21T01:31:22;21.83;;;15.00;;
22937;SDS011;11634;42.734;23.298;2022-08-21T01:33:51;19.30;;;14.48;;
22937;SDS011;11634;42.734;23.298;2022-08-21T01:36:17;19.15;;;14.73;;
22937;SDS011;11634;42.734;23.298;2022-08-21T01:38:42;18.35;;;13.70;;
22937;SDS011;11634;42.734;23.298;2022-08-21T01:41:08;16.38;;;13.50;;
22937;SDS011;11634;42.734;23.298;2022-08-21T01:43:34;14.63;;;12.50;;
22937;SDS011;11634;42.734;23.298;2022-08-21T01:45:59;15.57;;;12.52;;
22937;SDS011;11634;42.734;23.298;2022-08-21T01:48:25;15.10;;;11.70;;
22937;SDS011;11634;42.734;23.298;2022-08-21T01:50:51;12.60;;;10.52;;
22937;SDS011;11634;42.734;23.298;2022-08-21T01:53:16;14.82;;;11.15;;
22937;SDS011;11634;42.734;23.298;2022-08-21T01:55:42;16.58;;;11.32;;
22937;SDS011;11634;42.734;23.298;2022-08-21T01:58:09;14.75;;;12.35;;
22937;SDS011;11634;42.734;23.298;2022-08-21T02:00:34;16.35;;;12.98;;
22937;SDS011;11634;42.734;23.298;2022-08-21T02:03:00;14.73;;;13.18;;
22937;SDS011;11634;42.734;23.298;2022-08-21T02:05:25;17.45;;;12.93;;
22937;SDS011;11634;42.734;23.298;2022-08-21T02:07:54;18.10;;;13.48;;
22937;SDS011;11634;42.734;23.298;2022-08-21T02:10:27;21.73;;;14.63;;
22937;SDS011;11634;42.734;23.298;2022-08-21T02:12:56;17.00;;;14.25;;
22937;SDS011;11634;42.734;23.298;2022-08-21T02:15:23;17.33;;;15.45;;
22937;SDS011;11634;42.734;23.298;2022-08-21T02:17:51;18.25;;;15.10;;
22937;SDS011;11634;42.734;23.298;2022-08-21T02:22:50;15.68;;;13.43;;
22937;SDS011;11634;42.734;23.298;2022-08-21T02:25:17;18.13;;;14.57;;
22937;SDS011;11634;42.734;23.298;2022-08-21T02:27:44;16.83;;;14.05;;
22937;SDS011;11634;42.734;23.298;2022-08-21T02:30:17;17.25;;;14.45;;
22937;SDS011;11634;42.734;23.298;2022-08-21T02:32:47;19.77;;;13.68;;
22937;SDS011;11634;42.734;23.298;2022-08-21T02:35:13;16.38;;;13.55;;
22937;SDS011;11634;42.734;23.298;2022-08-21T02:37:43;17.60;;;14.50;;
22937;SDS011;11634;42.734;23.298;2022-08-21T02:40:14;18.45;;;14.75;;
22937;SDS011;11634;42.734;23.298;2022-08-21T02:42:42;17.52;;;14.95;;
22937;SDS011;11634;42.734;23.298;2022-08-21T02:45:09;18.13;;;14.63;;
22937;SDS011;11634;42.734;23.298;2022-08-21T02:47:35;18.08;;;14.13;;
22937;SDS011;11634;42.734;23.298;2022-08-21T02:50:01;18.23;;;14.95;;
22937;SDS011;11634;42.734;23.298;2022-08-21T02:52:27;17.60;;;14.25;;
22937;SDS011;11634;42.734;23.298;2022-08-21T02:54:52;18.33;;;14.35;;
22937;SDS011;11634;42.734;23.298;2022-08-21T02:57:18;17.38;;;14.98;;
22937;SDS011;11634;42.734;23.298;2022-08-21T02:59:43;15.75;;;13.68;;
22937;SDS011;11634;42.734;23.298;2022-08-21T03:02:09;19.70;;;14.30;;
22937;SDS011;11634;42.734;23.298;2022-08-21T03:04:36;18.58;;;15.00;;
22937;SDS011;11634;42.734;23.298;2022-08-21T03:07:02;16.30;;;13.07;;
22937;SDS011;11634;42.734;23.298;2022-08-21T03:09:27;15.85;;;13.93;;
22937;SDS011;11634;42.734;23.298;2022-08-21T03:11:53;18.60;;;13.90;;
22937;SDS011;11634;42.734;23.298;2022-08-21T03:14:19;16.85;;;13.85;;
22937;SDS011;11634;42.734;23.298;2022-08-21T03:16:44;20.15;;;13.90;;
22937;SDS011;11634;42.734;23.298;2022-08-21T03:19:11;18.23;;;14.02;;
22937;SDS011;11634;42.734;23.298;2022-08-21T03:21:37;19.77;;;15.00;;
22937;SDS011;11634;42.734;23.298;2022-08-21T03:24:02;20.05;;;13.77;;
22937;SDS011;11634;42.734;23.298;2022-08-21T03:26:30;16.05;;;13.93;;
22937;SDS011;11634;42.734;23.298;2022-08-21T03:28:55;16.23;;;14.50;;
22937;SDS011;11634;42.734;23.298;2022-08-21T03:31:23;18.10;;;14.77;;
22937;SDS011;11634;42.734;23.298;2022-08-21T03:33:50;19.17;;;14.77;;
22937;SDS011;11634;42.734;23.298;2022-08-21T03:36:20;18.15;;;15.32;;
22937;SDS011;11634;42.734;23.298;2022-08-21T03:38:45;22.35;;;15.38;;
22937;SDS011;11634;42.734;23.298;2022-08-21T03:41:11;22.25;;;17.15;;
22937;SDS011;11634;42.734;23.298;2022-08-21T03:43:36;19.90;;;16.80;;
22937;SDS011;11634;42.734;23.298;2022-08-21T03:46:04;22.08;;;17.67;;
22937;SDS011;11634;42.734;23.298;2022-08-21T03:48:30;24.83;;;17.73;;
22937;SDS011;11634;42.734;23.298;2022-08-21T03:50:56;26.67;;;18.55;;
22937;SDS011;11634;42.734;23.298;2022-08-21T03:53:22;21.20;;;17.75;;
22937;SDS011;11634;42.734;23.298;2022-08-21T03:55:49;22.60;;;18.58;;
22937;SDS011;11634;42.734;23.298;2022-08-21T03:58:18;20.80;;;18.65;;
22937;SDS011;11634;42.734;23.298;2022-08-21T04:00:46;22.75;;;19.15;;
22937;SDS011;11634;42.734;23.298;2022-08-21T04:03:16;28.98;;;19.95;;
22937;SDS011;11634;42.734;23.298;2022-08-21T04:05:42;23.00;;;19.15;;
22937;SDS011;11634;42.734;23.298;2022-08-21T04:08:07;23.25;;;18.88;;
22937;SDS011;11634;42.734;23.298;2022-08-21T04:10:34;20.70;;;18.45;;
22937;SDS011;11634;42.734;23.298;2022-08-21T04:13:02;21.45;;;18.75;;
22937;SDS011;11634;42.734;23.298;2022-08-21T04:15:29;20.40;;;18.15;;
22937;SDS011;11634;42.734;23.298;2022-08-21T04:17:54;25.65;;;19.75;;
22937;SDS011;11634;42.734;23.298;2022-08-21T04:20:20;28.23;;;22.85;;
22937;SDS011;11634;42.734;23.298;2022-08-21T04:22:47;25.77;;;21.95;;
22937;SDS011;11634;42.734;23.298;2022-08-21T04:25:15;29.67;;;23.02;;
22937;SDS011;11634;42.734;23.298;2022-08-21T04:27:43;28.55;;;22.50;;
22937;SDS011;11634;42.734;23.298;2022-08-21T04:30:09;31.55;;;24.95;;
22937;SDS011;11634;42.734;23.298;2022-08-21T04:32:38;38.08;;;30.80;;
22937;SDS011;11634;42.734;23.298;2022-08-21T04:35:05;37.45;;;32.58;;
22937;SDS011;11634;42.734;23.298;2022-08-21T04:37:34;35.45;;;30.05;;
22937;SDS011;11634;42.734;23.298;2022-08-21T04:40:00;36.10;;;30.77;;
22937;SDS011;11634;42.734;23.298;2022-08-21T04:42:26;36.97;;;30.10;;
22937;SDS011;11634;42.734;23.298;2022-08-21T04:44:53;36.15;;;28.42;;
22937;SDS011;11634;42.734;23.298;2022-08-21T04:47:22;31.45;;;25.35;;
22937;SDS011;11634;42.734;23.298;2022-08-21T04:49:49;30.40;;;24.00;;
22937;SDS011;11634;42.734;23.298;2022-08-21T04:52:15;30.08;;;23.77;;
22937;SDS011;11634;42.734;23.298;2022-08-21T04:54:45;28.42;;;22.65;;
22937;SDS011;11634;42.734;23.298;2022-08-21T04:57:14;28.52;;;22.83;;
22937;SDS011;11634;42.734;23.298;2022-08-21T04:59:42;26.08;;;21.73;;
22937;SDS011;11634;42.734;23.298;2022-08-21T05:02:12;26.13;;;20.88;;
22937;SDS011;11634;42.734;23.298;2022-08-21T05:04:42;27.15;;;20.95;;
22937;SDS011;11634;42.734;23.298;2022-08-21T05:07:17;28.80;;;21.23;;
22937;SDS011;11634;42.734;23.298;2022-08-21T05:09:47;27.38;;;20.60;;
22937;SDS011;11634;42.734;23.298;2022-08-21T05:12:13;26.05;;;21.23;;
22937;SDS011;11634;42.734;23.298;2022-08-21T05:14:39;27.50;;;22.35;;
22937;SDS011;11634;42.734;23.298;2022-08-21T05:17:05;25.35;;;21.35;;
22937;SDS011;11634;42.734;23.298;2022-08-21T05:19:30;23.75;;;20.88;;
22937;SDS011;11634;42.734;23.298;2022-08-21T05:21:56;22.58;;;20.17;;
22937;SDS011;11634;42.734;23.298;2022-08-21T05:24:23;25.50;;;21.60;;
22937;SDS011;11634;42.734;23.298;2022-08-21T05:26:49;23.75;;;19.85;;
22937;SDS011;11634;42.734;23.298;2022-08-21T05:29:15;24.27;;;20.75;;
22937;SDS011;11634;42.734;23.298;2022-08-21T05:31:41;24.27;;;20.65;;
22937;SDS011;11634;42.734;23.298;2022-08-21T05:34:08;21.27;;;18.98;;
22937;SDS011;11634;42.734;23.298;2022-08-21T05:36:33;23.23;;;20.30;;
22937;SDS011;11634;42.734;23.298;2022-08-21T05:38:59;24.55;;;20.27;;
22937;SDS011;11634;42.734;23.298;2022-08-21T05:41:24;24.63;;;21.25;;
22937;SDS011;11634;42.734;23.298;2022-08-21T05:43:50;23.45;;;19.52;;
22937;SDS011;11634;42.734;23.298;2022-08-21T05:46:16;22.50;;;20.15;;
22937;SDS011;11634;42.734;23.298;2022-08-21T05:48:41;26.45;;;20.95;;
22937;SDS011;11634;42.734;23.298;2022-08-21T05:51:09;26.33;;;22.08;;
22937;SDS011;11634;42.734;23.298;2022-08-21T05:53:37;29.35;;;21.63;;
22937;SDS011;11634;42.734;23.298;2022-08-21T05:56:04;27.52;;;23.48;;
22937;SDS011;11634;42.734;23.298;2022-08-21T05:58:30;27.73;;;23.92;;
22937;SDS011;11634;42.734;23.298;2022-08-21T06:00:58;30.60;;;24.52;;
22937;SDS011;11634;42.734;23.298;2022-08-21T06:03:28;28.83;;;25.83;;
22937;SDS011;11634;42.734;23.298;2022-08-21T06:05:57;33.30;;;29.65;;
22937;SDS011;11634;42.734;23.298;2022-08-21T06:08:24;31.55;;;28.15;;
22937;SDS011;11634;42.734;23.298;2022-08-21T06:10:50;35.05;;;30.35;;
22937;SDS011;11634;42.734;23.298;2022-08-21T06:13:17;35.10;;;30.60;;
22937;SDS011;11634;42.734;23.298;2022-08-21T06:15:44;38.67;;;32.67;;
22937;SDS011;11634;42.734;23.298;2022-08-21T06:18:10;37.10;;;32.72;;
22937;SDS011;11634;42.734;23.298;2022-08-21T06:20:36;35.50;;;31.33;;
22937;SDS011;11634;42.734;23.298;2022-08-21T06:23:02;34.70;;;29.35;;
22937;SDS011;11634;42.734;23.298;2022-08-21T06:25:28;32.88;;;29.00;;
22937;SDS011;11634;42.734;23.298;2022-08-21T06:28:04;31.67;;;26.05;;
22937;SDS011;11634;42.734;23.298;2022-08-21T06:30:31;28.90;;;25.83;;
22937;SDS011;11634;42.734;23.298;2022-08-21T06:32:57;32.90;;;27.80;;
22937;SDS011;11634;42.734;23.298;2022-08-21T06:35:23;30.05;;;26.95;;
22937;SDS011;11634;42.734;23.298;2022-08-21T06:37:49;30.45;;;27.15;;
22937;SDS011;11634;42.734;23.298;2022-08-21T06:40:17;34.20;;;26.88;;
22937;SDS011;11634;42.734;23.298;2022-08-21T06:42:42;29.65;;;26.17;;
22937;SDS011;11634;42.734;23.298;2022-08-21T06:45:09;28.13;;;23.60;;
22937;SDS011;11634;42.734;23.298;2022-08-21T06:47:35;29.00;;;24.65;;
22937;SDS011;11634;42.734;23.298;2022-08-21T06:50:00;26.63;;;22.50;;
22937;SDS011;11634;42.734;23.298;2022-08-21T06:52:26;23.27;;;20.75;;
22937;SDS011;11634;42.734;23.298;2022-08-21T06:54:51;24.45;;;20.38;;
22937;SDS011;11634;42.734;23.298;2022-08-21T06:57:17;23.45;;;18.58;;
22937;SDS011;11634;42.734;23.298;2022-08-21T06:59:46;19.33;;;17.13;;
22937;SDS011;11634;42.734;23.298;2022-08-21T07:02:11;19.88;;;16.88;;
22937;SDS011;11634;42.734;23.298;2022-08-21T07:04:37;19.17;;;16.50;;
22937;SDS011;11634;42.734;23.298;2022-08-21T07:07:05;21.95;;;17.35;;
22937;SDS011;11634;42.734;23.298;2022-08-21T07:09:30;18.95;;;16.45;;
22937;SDS011;11634;42.734;23.298;2022-08-21T07:11:56;20.67;;;17.73;;
22937;SDS011;11634;42.734;23.298;2022-08-21T07:14:22;23.25;;;19.63;;
22937;SDS011;11634;42.734;23.298;2022-08-21T07:16:48;22.00;;;18.42;;
22937;SDS011;11634;42.734;23.298;2022-08-21T07:19:14;23.33;;;18.73;;
22937;SDS011;11634;42.734;23.298;2022-08-21T07:21:40;20.00;;;17.75;;
22937;SDS011;11634;42.734;23.298;2022-08-21T07:24:08;20.58;;;17.98;;
22937;SDS011;11634;42.734;23.298;2022-08-21T07:26:34;19.48;;;17.40;;
22937;SDS011;11634;42.734;23.298;2022-08-21T07:28:59;21.25;;;17.42;;
22937;SDS011;11634;42.734;23.298;2022-08-21T07:31:25;20.55;;;18.10;;
22937;SDS011;11634;42.734;23.298;2022-08-21T07:33:51;16.50;;;14.75;;
22937;SDS011;11634;42.734;23.298;2022-08-21T07:36:17;17.25;;;14.50;;
22937;SDS011;11634;42.734;23.298;2022-08-21T07:38:44;16.92;;;15.00;;
22937;SDS011;11634;42.734;23.298;2022-08-21T07:41:15;18.27;;;16.23;;
22937;SDS011;11634;42.734;23.298;2022-08-21T07:43:43;19.13;;;15.65;;
22937;SDS011;11634;42.734;23.298;2022-08-21T07:46:09;17.05;;;15.07;;
22937;SDS011;11634;42.734;23.298;2022-08-21T07:48:35;15.70;;;14.02;;
22937;SDS011;11634;42.734;23.298;2022-08-21T07:51:02;16.38;;;14.15;;
22937;SDS011;11634;42.734;23.298;2022-08-21T07:53:31;18.38;;;13.82;;
22937;SDS011;11634;42.734;23.298;2022-08-21T07:55:57;13.68;;;12.07;;
22937;SDS011;11634;42.734;23.298;2022-08-21T07:58:23;15.48;;;13.45;;
22937;SDS011;11634;42.734;23.298;2022-08-21T08:00:49;13.48;;;12.07;;
22937;SDS011;11634;42.734;23.298;2022-08-21T08:03:14;15.45;;;13.18;;
22937;SDS011;11634;42.734;23.298;2022-08-21T08:05:40;17.58;;;13.25;;
22937;SDS011;11634;42.734;23.298;2022-08-21T08:08:05;16.73;;;13.77;;
22937;SDS011;11634;42.734;23.298;2022-08-21T08:10:31;16.13;;;12.50;;
22937;SDS011;11634;42.734;23.298;2022-08-21T08:12:57;15.35;;;12.43;;
22937;SDS011;11634;42.734;23.298;2022-08-21T08:15:23;18.65;;;14.27;;
22937;SDS011;11634;42.734;23.298;2022-08-21T08:17:50;17.80;;;14.27;;
22937;SDS011;11634;42.734;23.298;2022-08-21T08:20:16;16.30;;;14.07;;
22937;SDS011;11634;42.734;23.298;2022-08-21T08:22:43;15.95;;;14.13;;
22937;SDS011;11634;42.734;23.298;2022-08-21T08:25:10;17.58;;;13.75;;
22937;SDS011;11634;42.734;23.298;2022-08-21T08:27:37;14.82;;;13.13;;
22937;SDS011;11634;42.734;23.298;2022-08-21T08:30:04;17.55;;;13.13;;
22937;SDS011;11634;42.734;23.298;2022-08-21T08:32:31;15.73;;;13.18;;
22937;SDS011;11634;42.734;23.298;2022-08-21T08:34:57;15.60;;;13.20;;
22937;SDS011;11634;42.734;23.298;2022-08-21T08:37:24;14.57;;;12.98;;
22937;SDS011;11634;42.734;23.298;2022-08-21T08:39:51;14.02;;;12.63;;
22937;SDS011;11634;42.734;23.298;2022-08-21T08:42:31;18.65;;;14.07;;
22937;SDS011;11634;42.734;23.298;2022-08-21T08:45:04;16.33;;;12.57;;
22937;SDS011;11634;42.734;23.298;2022-08-21T08:47:32;15.63;;;12.80;;
22937;SDS011;11634;42.734;23.298;2022-08-21T08:52:28;13.25;;;11.27;;
22937;SDS011;11634;42.734;23.298;2022-08-21T08:55:04;15.73;;;13.05;;
22937;SDS011;11634;42.734;23.298;2022-08-21T08:57:34;12.88;;;11.45;;
22937;SDS011;11634;42.734;23.298;2022-08-21T09:00:05;15.57;;;12.48;;
22937;SDS011;11634;42.734;23.298;2022-08-21T09:02:37;15.38;;;11.73;;
22937;SDS011;11634;42.734;23.298;2022-08-21T09:05:05;13.98;;;11.10;;
22937;SDS011;11634;42.734;23.298;2022-08-21T09:07:50;16.80;;;11.77;;
22937;SDS011;11634;42.734;23.298;2022-08-21T09:10:20;13.98;;;11.20;;
22937;SDS011;11634;42.734;23.298;2022-08-21T09:15:32;14.10;;;11.15;;
22937;SDS011;11634;42.734;23.298;2022-08-21T09:21:17;13.00;;;10.32;;
22937;SDS011;11634;42.734;23.298;2022-08-21T09:24:02;12.63;;;9.48;;
22937;SDS011;11634;42.734;23.298;2022-08-21T09:29:33;10.70;;;7.63;;
22937;SDS011;11634;42.734;23.298;2022-08-21T09:32:00;8.00;;;6.68;;
22937;SDS011;11634;42.734;23.298;2022-08-21T09:34:29;10.07;;;6.05;;
22937;SDS011;11634;42.734;23.298;2022-08-21T09:36:56;8.68;;;5.85;;
22937;SDS011;11634;42.734;23.298;2022-08-21T09:39:25;8.10;;;6.15;;
22937;SDS011;11634;42.734;23.298;2022-08-21T09:41:59;11.55;;;7.57;;
22937;SDS011;11634;42.734;23.298;2022-08-21T09:44:28;11.90;;;7.15;;
22937;SDS011;11634;42.734;23.298;2022-08-21T09:46:55;9.07;;;6.78;;
22937;SDS011;11634;42.734;23.298;2022-08-21T09:49:43;9.90;;;6.78;;
22937;SDS011;11634;42.734;23.298;2022-08-21T09:52:26;13.73;;;7.80;;
22937;SDS011;11634;42.734;23.298;2022-08-21T09:54:53;8.02;;;6.55;;
22937;SDS011;11634;42.734;23.298;2022-08-21T09:57:24;9.48;;;6.90;;
22937;SDS011;11634;42.734;23.298;2022-08-21T10:00:10;11.80;;;6.68;;
22937;SDS011;11634;42.734;23.298;2022-08-21T10:02:41;10.48;;;6.97;;
22937;SDS011;11634;42.734;23.298;2022-08-21T10:05:08;8.90;;;6.63;;
22937;SDS011;11634;42.734;23.298;2022-08-21T10:07:45;8.48;;;6.72;;
22937;SDS011;11634;42.734;23.298;2022-08-21T10:10:15;10.07;;;6.55;;
22937;SDS011;11634;42.734;23.298;2022-08-21T10:16:04;9.45;;;6.75;;
22937;SDS011;11634;42.734;23.298;2022-08-21T10:18:35;11.43;;;6.90;;
22937;SDS011;11634;42.734;23.298;2022-08-21T10:21:17;9.73;;;6.32;;
22937;SDS011;11634;42.734;23.298;2022-08-21T10:24:09;9.50;;;7.13;;
22937;SDS011;11634;42.734;23.298;2022-08-21T10:26:40;8.65;;;6.70;;
22937;SDS011;11634;42.734;23.298;2022-08-21T10:37:14;9.55;;;6.90;;
22937;SDS011;11634;42.734;23.298;2022-08-21T10:45:25;11.00;;;7.32;;
22937;SDS011;11634;42.734;23.298;2022-08-21T10:48:05;9.98;;;7.10;;
22937;SDS011;11634;42.734;23.298;2022-08-21T10:53:57;7.15;;;5.60;;
22937;SDS011;11634;42.734;23.298;2022-08-21T10:56:45;7.72;;;6.53;;
22937;SDS011;11634;42.734;23.298;2022-08-21T11:07:51;7.20;;;5.60;;
22937;SDS011;11634;42.734;23.298;2022-08-21T11:13:48;7.97;;;6.57;;
22937;SDS011;11634;42.734;23.298;2022-08-21T11:22:15;6.60;;;5.78;;
22937;SDS011;11634;42.734;23.298;2022-08-21T11:29:59;6.97;;;5.60;;
22937;SDS011;11634;42.734;23.298;2022-08-21T11:32:47;9.48;;;5.50;;
22937;SDS011;11634;42.734;23.298;2022-08-21T11:40:59;8.75;;;6.03;;
22937;SDS011;11634;42.734;23.298;2022-08-21T11:43:38;9.98;;;5.45;;
22937;SDS011;11634;42.734;23.298;2022-08-21T11:51:39;5.00;;;4.55;;
22937;SDS011;11634;42.734;23.298;2022-08-21T11:54:24;8.93;;;4.70;;
22937;SDS011;11634;42.734;23.298;2022-08-21T11:56:57;9.40;;;5.85;;
22937;SDS011;11634;42.734;23.298;2022-08-21T11:59:32;8.38;;;5.72;;
22937;SDS011;11634;42.734;23.298;2022-08-21T12:02:02;11.25;;;5.70;;
22937;SDS011;11634;42.734;23.298;2022-08-21T12:04:42;11.10;;;5.55;;
22937;SDS011;11634;42.734;23.298;2022-08-21T12:07:29;6.53;;;5.03;;
22937;SDS011;11634;42.734;23.298;2022-08-21T12:10:08;8.10;;;5.00;;
22937;SDS011;11634;42.734;23.298;2022-08-21T12:12:41;11.50;;;5.32;;
22937;SDS011;11634;42.734;23.298;2022-08-21T12:15:13;7.75;;;4.93;;
22937;SDS011;11634;42.734;23.298;2022-08-21T12:18:04;7.95;;;5.75;;
22937;SDS011;11634;42.734;23.298;2022-08-21T12:25:39;9.63;;;5.88;;
22937;SDS011;11634;42.734;23.298;2022-08-21T12:28:11;8.90;;;6.20;;
22937;SDS011;11634;42.734;23.298;2022-08-21T12:30:41;8.38;;;5.90;;
22937;SDS011;11634;42.734;23.298;2022-08-21T12:33:29;9.75;;;6.15;;
22937;SDS011;11634;42.734;23.298;2022-08-21T12:36:10;11.23;;;6.22;;
22937;SDS011;11634;42.734;23.298;2022-08-21T12:38:42;10.82;;;6.05;;
22937;SDS011;11634;42.734;23.298;2022-08-21T12:41:24;6.93;;;6.20;;
22937;SDS011;11634;42.734;23.298;2022-08-21T12:46:48;8.10;;;5.65;;
22937;SDS011;11634;42.734;23.298;2022-08-21T12:49:18;10.82;;;6.00;;
22937;SDS011;11634;42.734;23.298;2022-08-21T12:51:54;8.15;;;5.53;;
22937;SDS011;11634;42.734;23.298;2022-08-21T12:54:41;9.65;;;5.28;;
22937;SDS011;11634;42.734;23.298;2022-08-21T12:57:08;11.48;;;5.95;;
22937;SDS011;11634;42.734;23.298;2022-08-21T12:59:43;7.90;;;5.90;;
22937;SDS011;11634;42.734;23.298;2022-08-21T13:02:17;8.07;;;6.15;;
22937;SDS011;11634;42.734;23.298;2022-08-21T13:04:45;9.48;;;5.72;;
22937;SDS011;11634;42.734;23.298;2022-08-21T13:07:14;9.73;;;6.00;;
22937;SDS011;11634;42.734;23.298;2022-08-21T13:09:50;7.10;;;5.93;;
22937;SDS011;11634;42.734;23.298;2022-08-21T13:12:17;8.43;;;6.10;;
22937;SDS011;11634;42.734;23.298;2022-08-21T13:14:46;14.18;;;6.40;;
22937;SDS011;11634;42.734;23.298;2022-08-21T13:17:14;6.10;;;5.45;;
22937;SDS011;11634;42.734;23.298;2022-08-21T13:19:42;9.20;;;5.78;;
22937;SDS011;11634;42.734;23.298;2022-08-21T13:22:22;8.43;;;6.10;;
22937;SDS011;11634;42.734;23.298;2022-08-21T13:24:48;9.63;;;5.68;;
22937;SDS011;11634;42.734;23.298;2022-08-21T13:27:17;11.48;;;5.43;;
22937;SDS011;11634;42.734;23.298;2022-08-21T13:29:44;7.13;;;5.75;;
22937;SDS011;11634;42.734;23.298;2022-08-21T13:32:13;7.72;;;5.20;;
22937;SDS011;11634;42.734;23.298;2022-08-21T13:34:46;7.38;;;5.20;;
22937;SDS011;11634;42.734;23.298;2022-08-21T13:37:12;7.97;;;5.90;;
22937;SDS011;11634;42.734;23.298;2022-08-21T13:39:39;7.43;;;5.20;;
22937;SDS011;11634;42.734;23.298;2022-08-21T13:42:08;9.32;;;5.72;;
22937;SDS011;11634;42.734;23.298;2022-08-21T13:44:42;9.00;;;5.88;;
22937;SDS011;11634;42.734;23.298;2022-08-21T13:47:11;10.82;;;5.72;;
22937;SDS011;11634;42.734;23.298;2022-08-21T13:49:48;9.40;;;5.63;;
22937;SDS011;11634;42.734;23.298;2022-08-21T13:52:18;7.13;;;5.10;;
22937;SDS011;11634;42.734;23.298;2022-08-21T13:54:58;7.05;;;5.25;;
22937;SDS011;11634;42.734;23.298;2022-08-21T13:57:34;7.78;;;5.68;;
22937;SDS011;11634;42.734;23.298;2022-08-21T14:02:43;8.18;;;5.50;;
22937;SDS011;11634;42.734;23.298;2022-08-21T14:05:18;7.47;;;5.57;;
22937;SDS011;11634;42.734;23.298;2022-08-21T14:07:46;6.38;;;5.30;;
22937;SDS011;11634;42.734;23.298;2022-08-21T14:10:18;8.95;;;5.45;;
22937;SDS011;11634;42.734;23.298;2022-08-21T14:15:15;8.15;;;4.85;;
22937;SDS011;11634;42.734;23.298;2022-08-21T14:17:42;10.52;;;5.25;;
22937;SDS011;11634;42.734;23.298;2022-08-21T14:20:10;8.10;;;4.75;;
22937;SDS011;11634;42.734;23.298;2022-08-21T14:22:39;9.63;;;5.35;;
22937;SDS011;11634;42.734;23.298;2022-08-21T14:27:51;5.88;;;5.25;;
22937;SDS011;11634;42.734;23.298;2022-08-21T14:30:27;9.38;;;5.75;;
22937;SDS011;11634;42.734;23.298;2022-08-21T14:32:54;8.43;;;5.03;;
22937;SDS011;11634;42.734;23.298;2022-08-21T14:35:20;10.15;;;5.70;;
22937;SDS011;11634;42.734;23.298;2022-08-21T14:37:47;7.80;;;5.88;;
22937;SDS011;11634;42.734;23.298;2022-08-21T14:40:15;9.60;;;5.78;;
22937;SDS011;11634;42.734;23.298;2022-08-21T14:42:45;7.13;;;5.40;;
22937;SDS011;11634;42.734;23.298;2022-08-21T14:47:41;6.68;;;5.32;;
22937;SDS011;11634;42.734;23.298;2022-08-21T14:50:13;10.40;;;5.85;;
22937;SDS011;11634;42.734;23.298;2022-08-21T14:52:39;10.90;;;7.13;;
22937;SDS011;11634;42.734;23.298;2022-08-21T14:55:08;10.93;;;6.13;;
22937;SDS011;11634;42.734;23.298;2022-08-21T14:57:44;8.13;;;5.50;;
22937;SDS011;11634;42.734;23.298;2022-08-21T15:00:15;9.80;;;6.45;;
22937;SDS011;11634;42.734;23.298;2022-08-21T15:02:44;11.85;;;6.28;;
22937;SDS011;11634;42.734;23.298;2022-08-21T15:05:10;9.13;;;6.30;;
22937;SDS011;11634;42.734;23.298;2022-08-21T15:07:36;11.27;;;7.07;;
22937;SDS011;11634;42.734;23.298;2022-08-21T15:10:09;8.07;;;6.03;;
22937;SDS011;11634;42.734;23.298;2022-08-21T15:12:36;11.43;;;6.72;;
22937;SDS011;11634;42.734;23.298;2022-08-21T15:15:04;9.60;;;6.97;;
22937;SDS011;11634;42.734;23.298;2022-08-21T15:17:36;7.93;;;6.20;;
22937;SDS011;11634;42.734;23.298;2022-08-21T15:20:02;8.88;;;6.93;;
22937;SDS011;11634;42.734;23.298;2022-08-21T15:22:32;11.73;;;6.95;;
22937;SDS011;11634;42.734;23.298;2022-08-21T15:24:58;10.15;;;6.43;;
22937;SDS011;11634;42.734;23.298;2022-08-21T15:27:24;7.38;;;5.43;;
22937;SDS011;11634;42.734;23.298;2022-08-21T15:29:51;5.40;;;4.90;;
22937;SDS011;11634;42.734;23.298;2022-08-21T15:34:47;9.63;;;6.30;;
22937;SDS011;11634;42.734;23.298;2022-08-21T15:37:13;8.98;;;6.55;;
22937;SDS011;11634;42.734;23.298;2022-08-21T15:39:43;8.00;;;6.03;;
22937;SDS011;11634;42.734;23.298;2022-08-21T15:42:09;10.07;;;6.22;;
22937;SDS011;11634;42.734;23.298;2022-08-21T15:44:36;9.75;;;7.03;;
22937;SDS011;11634;42.734;23.298;2022-08-21T15:47:02;8.73;;;6.45;;
22937;SDS011;11634;42.734;23.298;2022-08-21T15:49:28;7.95;;;5.95;;
22937;SDS011;11634;42.734;23.298;2022-08-21T15:51:54;8.25;;;6.07;;
22937;SDS011;11634;42.734;23.298;2022-08-21T15:54:19;11.32;;;6.68;;
22937;SDS011;11634;42.734;23.298;2022-08-21T15:56:46;6.60;;;5.90;;